createdAt,value
2017-11-09T00:03:03.940Z,11.63
2017-11-09T00:05:37.286Z,11.67
2017-11-09T00:08:04.914Z,11.63
2017-11-09T00:10:32.533Z,11.68
2017-11-09T00:13:00.263Z,11.67
2017-11-09T00:15:27.949Z,11.68
2017-11-09T00:17:55.567Z,11.70
2017-11-09T00:20:23.238Z,11.75
2017-11-09T00:22:50.862Z,11.80
2017-11-09T00:25:18.545Z,11.83
2017-11-09T00:27:46.214Z,11.89
2017-11-09T00:30:13.901Z,11.86
2017-11-09T00:32:41.582Z,11.91
2017-11-09T00:35:09.258Z,11.94
2017-11-09T00:37:36.952Z,11.98
2017-11-09T00:40:04.680Z,11.99
2017-11-09T00:42:32.352Z,12.00
2017-11-09T00:44:59.984Z,12.03
2017-11-09T00:47:27.607Z,12.02
2017-11-09T00:49:55.277Z,12.05
2017-11-09T00:52:22.969Z,12.08
2017-11-09T00:54:50.577Z,12.07
2017-11-09T00:57:18.247Z,12.02
2017-11-09T00:59:45.862Z,12.00
2017-11-09T01:02:13.542Z,12.04
2017-11-09T01:04:41.214Z,12.08
2017-11-09T01:07:08.893Z,12.11
2017-11-09T01:09:36.569Z,12.12
2017-11-09T01:12:04.248Z,12.11
2017-11-09T01:14:31.863Z,12.15
2017-11-09T01:16:59.472Z,12.16
2017-11-09T01:19:27.131Z,12.15
2017-11-09T01:21:54.753Z,12.14
2017-11-09T01:24:22.368Z,12.12
2017-11-09T01:26:50.060Z,12.10
2017-11-09T01:29:17.680Z,12.05
2017-11-09T01:31:45.365Z,12.11
2017-11-09T01:34:13.026Z,12.14
2017-11-09T01:36:40.714Z,12.17
2017-11-09T01:39:08.401Z,12.20
2017-11-09T01:41:36.136Z,12.19
2017-11-09T01:44:03.752Z,12.16
2017-11-09T01:46:31.384Z,12.16
2017-11-09T01:48:59.064Z,12.12
2017-11-09T01:51:26.694Z,12.14
2017-11-09T01:53:54.381Z,12.14
2017-11-09T01:56:22.036Z,12.18
2017-11-09T01:58:49.657Z,12.19
2017-11-09T02:01:17.283Z,12.14
2017-11-09T02:03:44.953Z,12.07
2017-11-09T02:06:12.633Z,12.06
2017-11-09T02:08:40.260Z,12.03
2017-11-09T02:11:07.932Z,11.95
2017-11-09T02:13:35.553Z,11.90
2017-11-09T02:16:03.175Z,11.80
2017-11-09T02:18:30.835Z,11.79
2017-11-09T02:20:58.521Z,11.79
2017-11-09T02:23:26.206Z,11.86
2017-11-09T02:25:53.896Z,11.91
2017-11-09T02:28:21.592Z,11.96
2017-11-09T02:30:49.285Z,12.00
2017-11-09T02:33:16.992Z,12.05
2017-11-09T02:35:44.625Z,12.10
2017-11-09T02:38:12.277Z,12.09
2017-11-09T02:40:39.947Z,12.08
2017-11-09T02:43:07.570Z,12.06
2017-11-09T02:45:35.212Z,12.03
2017-11-09T02:48:02.909Z,12.03
2017-11-09T02:50:30.533Z,11.96
2017-11-09T02:52:58.409Z,11.93
2017-11-09T02:55:26.091Z,11.91
2017-11-09T02:57:53.724Z,11.93
2017-11-09T03:00:21.418Z,11.88
2017-11-09T03:02:49.100Z,11.87
2017-11-09T03:05:16.723Z,11.86
2017-11-09T03:07:44.412Z,11.71
2017-11-09T03:10:12.093Z,11.74
2017-11-09T03:12:39.712Z,11.72
2017-11-09T03:15:07.333Z,11.68
2017-11-09T03:17:35.017Z,11.66
2017-11-09T03:20:02.655Z,11.68
2017-11-09T03:22:30.277Z,11.69
2017-11-09T03:24:57.960Z,11.60
2017-11-09T03:27:25.646Z,11.62
2017-11-09T03:29:53.320Z,11.57
2017-11-09T03:32:20.986Z,11.59
2017-11-09T03:34:48.605Z,11.55
2017-11-09T03:37:16.226Z,11.43
2017-11-09T03:39:43.944Z,11.38
2017-11-09T03:42:11.553Z,11.33
2017-11-09T03:44:39.168Z,11.25
2017-11-09T03:47:06.937Z,11.27
2017-11-09T03:49:34.552Z,11.30
2017-11-09T03:52:02.194Z,11.29
2017-11-09T03:54:29.930Z,11.32
2017-11-09T03:56:57.547Z,11.34
2017-11-09T03:59:25.163Z,11.41
2017-11-09T04:01:52.833Z,11.46
2017-11-09T04:04:20.448Z,11.49
2017-11-09T04:06:48.071Z,11.52
2017-11-09T04:09:15.743Z,11.58
2017-11-09T04:11:43.420Z,11.59
2017-11-09T04:14:11.029Z,11.58
2017-11-09T04:16:38.753Z,11.57
2017-11-09T04:19:06.364Z,11.63
2017-11-09T04:21:34.040Z,11.70
2017-11-09T04:24:01.712Z,11.74
2017-11-09T04:26:30.320Z,11.78
2017-11-09T04:28:57.948Z,11.85
2017-11-09T04:31:25.617Z,11.90
2017-11-09T04:33:53.245Z,11.95
2017-11-09T04:36:20.861Z,11.98
2017-11-09T04:38:48.574Z,11.99
2017-11-09T04:41:16.187Z,12.00
2017-11-09T04:43:43.811Z,11.84
2017-11-09T04:46:11.472Z,11.86
2017-11-09T04:48:39.092Z,11.81
2017-11-09T04:51:06.716Z,11.74
2017-11-09T04:53:34.400Z,11.68
2017-11-09T04:56:02.028Z,11.69
2017-11-09T04:58:29.704Z,11.74
2017-11-09T05:00:57.372Z,11.70
2017-11-09T05:03:25.044Z,11.65
2017-11-09T05:05:52.679Z,11.59
2017-11-09T05:08:20.408Z,11.57
2017-11-09T05:10:48.027Z,11.52
2017-11-09T05:13:15.693Z,11.51
2017-11-09T05:15:43.369Z,11.49
2017-11-09T05:18:11.048Z,11.47
2017-11-09T05:20:38.732Z,11.51
2017-11-09T05:23:06.459Z,11.54
2017-11-09T05:25:34.150Z,11.55
2017-11-09T05:28:01.787Z,11.53
2017-11-09T05:30:29.541Z,11.52
2017-11-09T05:32:57.220Z,11.52
2017-11-09T05:35:24.848Z,11.54
2017-11-09T05:37:52.512Z,11.58
2017-11-09T05:40:20.142Z,11.62
2017-11-09T05:42:47.838Z,11.65
2017-11-09T05:45:15.576Z,11.67
2017-11-09T05:47:43.198Z,11.66
2017-11-09T05:50:10.901Z,11.66
2017-11-09T05:52:38.725Z,11.61
2017-11-09T05:55:06.352Z,11.65
2017-11-09T05:57:34.041Z,11.70
2017-11-09T06:00:01.720Z,11.63
2017-11-09T06:02:29.386Z,11.63
2017-11-09T06:04:57.021Z,11.65
2017-11-09T06:07:24.688Z,11.69
2017-11-09T06:09:52.381Z,11.68
2017-11-09T06:12:20.061Z,11.78
2017-11-09T06:14:47.805Z,11.81
2017-11-09T06:17:15.433Z,11.89
2017-11-09T06:19:43.046Z,12.00
2017-11-09T06:22:10.769Z,12.10
2017-11-09T06:24:38.388Z,12.14
2017-11-09T06:27:06.013Z,12.18
2017-11-09T06:29:33.852Z,12.24
2017-11-09T06:32:01.476Z,12.28
2017-11-09T06:34:29.101Z,12.21
2017-11-09T06:36:56.773Z,12.21
2017-11-09T06:39:24.459Z,12.23
2017-11-09T06:41:52.079Z,12.23
2017-11-09T06:44:19.757Z,12.19
2017-11-09T06:46:47.377Z,12.10
2017-11-09T06:49:14.987Z,12.03
2017-11-09T06:51:42.660Z,12.02
2017-11-09T06:54:10.292Z,11.95
2017-11-09T06:56:37.995Z,11.94
2017-11-09T06:59:05.682Z,12.01
2017-11-09T07:01:33.303Z,12.10
2017-11-09T07:04:00.930Z,12.19
2017-11-09T07:06:28.601Z,12.15
2017-11-09T07:08:56.245Z,12.17
2017-11-09T07:11:23.864Z,12.15
2017-11-09T07:13:51.536Z,12.08
2017-11-09T07:16:19.224Z,12.02
2017-11-09T07:18:46.913Z,11.96
2017-11-09T07:21:14.601Z,11.95
2017-11-09T07:23:42.228Z,11.96
2017-11-09T07:26:09.866Z,11.98
2017-11-09T07:28:37.709Z,12.00
2017-11-09T07:31:05.353Z,11.91
2017-11-09T07:33:33.040Z,11.93
2017-11-09T07:36:00.729Z,11.99
2017-11-09T07:38:28.350Z,11.98
2017-11-09T07:40:56.021Z,11.94
2017-11-09T07:43:23.704Z,11.99
2017-11-09T07:45:51.335Z,11.96
2017-11-09T07:48:18.956Z,11.95
2017-11-09T07:50:46.646Z,12.02
2017-11-09T07:53:14.268Z,12.11
2017-11-09T07:55:41.884Z,12.08
2017-11-09T07:58:09.581Z,12.10
2017-11-09T08:00:37.280Z,12.14
2017-11-09T08:03:04.906Z,12.23
2017-11-09T08:05:32.590Z,12.31
2017-11-09T08:08:00.276Z,12.38
2017-11-09T08:10:27.913Z,12.51
2017-11-09T08:12:55.605Z,12.53
2017-11-09T08:15:23.230Z,12.62
2017-11-09T08:17:50.869Z,12.67
2017-11-09T08:20:18.554Z,12.78
2017-11-09T08:22:46.184Z,12.84
2017-11-09T08:25:16.640Z,12.90
2017-11-09T08:27:46.057Z,12.91
2017-11-09T08:30:14.088Z,13.10
2017-11-09T08:32:46.328Z,13.09
2017-11-09T08:35:14.019Z,13.12
2017-11-09T08:37:41.656Z,13.21
2017-11-09T08:40:09.289Z,13.21
2017-11-09T08:42:36.968Z,13.32
2017-11-09T08:45:04.588Z,13.49
2017-11-09T08:47:32.217Z,13.52
2017-11-09T08:50:00.065Z,13.55
2017-11-09T08:52:27.703Z,13.58
2017-11-09T08:54:55.397Z,13.55
2017-11-09T08:57:23.064Z,13.66
2017-11-09T08:59:50.708Z,13.74
2017-11-09T09:02:18.337Z,13.53
2017-11-09T09:04:46.107Z,13.65
2017-11-09T09:07:13.749Z,13.64
2017-11-09T09:09:41.383Z,13.58
2017-11-09T09:12:09.128Z,13.53
2017-11-09T09:14:36.807Z,13.66
2017-11-09T09:17:04.500Z,13.77
2017-11-09T09:19:32.228Z,14.04
2017-11-09T09:22:02.425Z,14.03
2017-11-09T09:24:30.169Z,14.18
2017-11-09T09:29:58.018Z,14.33
2017-11-09T09:32:26.162Z,14.44
2017-11-09T09:35:13.061Z,14.47
2017-11-09T09:37:44.637Z,14.44
2017-11-09T09:40:14.432Z,14.58
2017-11-09T09:42:42.125Z,14.57
2017-11-09T09:45:09.937Z,14.50
2017-11-09T09:47:37.698Z,14.51
2017-11-09T09:50:05.471Z,14.62
2017-11-09T09:52:33.177Z,14.57
2017-11-09T09:55:00.875Z,14.57
2017-11-09T09:57:28.585Z,14.71
2017-11-09T09:59:56.328Z,14.86
2017-11-09T10:02:24.026Z,15.07
2017-11-09T10:04:51.673Z,15.23
2017-11-09T10:07:19.418Z,15.12
2017-11-09T10:09:47.177Z,15.30
2017-11-09T10:12:14.935Z,15.43
2017-11-09T10:14:42.617Z,15.45
2017-11-09T10:17:10.300Z,15.53
2017-11-09T10:19:37.993Z,15.88
2017-11-09T10:22:05.681Z,16.11
2017-11-09T10:24:33.304Z,16.25
2017-11-09T10:27:00.936Z,16.43
2017-11-09T10:29:28.678Z,16.39
2017-11-09T10:31:56.314Z,16.61
2017-11-09T10:34:24.016Z,16.69
2017-11-09T10:36:51.701Z,16.73
2017-11-09T10:39:19.320Z,16.51
2017-11-09T10:41:47.053Z,16.50
2017-11-09T10:44:14.725Z,16.24
2017-11-09T10:46:42.357Z,16.00
2017-11-09T10:49:09.989Z,15.68
2017-11-09T10:51:37.677Z,15.43
2017-11-09T10:54:05.315Z,15.02
2017-11-09T10:56:32.956Z,15.20
2017-11-09T10:59:00.702Z,15.26
2017-11-09T11:01:28.337Z,15.11
2017-11-09T11:03:56.038Z,15.20
2017-11-09T11:06:23.788Z,15.33
2017-11-09T11:08:51.421Z,15.03
2017-11-09T11:11:19.129Z,15.14
2017-11-09T11:13:46.803Z,15.24
2017-11-09T11:16:14.445Z,15.01
2017-11-09T11:18:42.086Z,14.96
2017-11-09T11:21:09.766Z,14.88
2017-11-09T11:23:37.405Z,15.00
2017-11-09T11:26:05.025Z,14.94
2017-11-09T11:28:32.693Z,15.24
2017-11-09T11:31:00.321Z,15.31
2017-11-09T11:33:27.940Z,15.28
2017-11-09T11:35:55.615Z,15.12
2017-11-09T11:38:23.240Z,14.91
2017-11-09T11:40:50.864Z,14.74
2017-11-09T11:43:18.536Z,14.57
2017-11-09T11:45:46.173Z,14.42
2017-11-09T11:48:13.800Z,14.42
2017-11-09T11:50:41.486Z,14.45
2017-11-09T11:53:09.106Z,14.40
2017-11-09T11:55:36.750Z,14.39
2017-11-09T11:58:04.420Z,14.50
2017-11-09T12:00:32.064Z,14.53
2017-11-09T12:02:59.765Z,14.52
2017-11-09T12:05:27.500Z,14.55
2017-11-09T12:07:55.124Z,14.54
2017-11-09T12:10:23.701Z,14.55
2017-11-09T12:12:51.372Z,14.81
2017-11-09T12:15:19.051Z,14.83
2017-11-09T12:17:46.674Z,15.02
2017-11-09T12:20:14.358Z,15.34
2017-11-09T12:22:42.045Z,15.47
2017-11-09T12:25:09.748Z,15.57
2017-11-09T12:27:37.426Z,15.79
2017-11-09T12:30:05.074Z,15.79
2017-11-09T12:32:32.780Z,15.82
2017-11-09T12:35:00.461Z,15.67
2017-11-09T12:37:28.153Z,15.77
2017-11-09T12:39:55.849Z,16.00
2017-11-09T12:42:23.582Z,15.96
2017-11-09T12:44:51.369Z,15.44
2017-11-09T12:47:19.122Z,15.57
2017-11-09T12:49:46.894Z,15.61
2017-11-09T12:52:14.521Z,15.56
2017-11-09T12:54:42.153Z,15.51
2017-11-09T12:57:09.882Z,15.21
2017-11-09T12:59:37.980Z,15.11
2017-11-09T13:02:05.625Z,15.20
2017-11-09T13:04:33.354Z,15.18
2017-11-09T13:07:01.043Z,14.97
2017-11-09T13:09:28.668Z,14.99
2017-11-09T13:11:56.461Z,15.02
2017-11-09T13:14:24.184Z,15.12
2017-11-09T13:16:51.859Z,14.97
2017-11-09T13:22:13.428Z,14.79
2017-11-09T13:24:41.100Z,14.80
2017-11-09T13:27:08.784Z,14.83
2017-11-09T13:29:36.457Z,14.88
2017-11-09T13:32:04.293Z,14.80
2017-11-09T13:34:31.964Z,14.78
2017-11-09T13:37:00.357Z,14.82
2017-11-09T13:39:28.030Z,14.78
2017-11-09T13:41:55.687Z,14.79
2017-11-09T13:44:23.380Z,14.49
2017-11-09T13:46:51.064Z,14.52
2017-11-09T13:49:18.682Z,14.55
2017-11-09T13:51:46.313Z,14.40
2017-11-09T13:54:13.991Z,14.31
2017-11-09T13:56:41.620Z,14.25
2017-11-09T13:59:09.243Z,14.26
2017-11-09T14:01:36.975Z,14.25
2017-11-09T14:04:04.617Z,14.32
2017-11-09T14:06:32.259Z,14.33
2017-11-09T14:09:00.010Z,14.32
2017-11-09T14:11:27.640Z,14.27
2017-11-09T14:13:55.330Z,14.15
2017-11-09T14:16:23.024Z,14.16
2017-11-09T14:18:50.718Z,14.08
2017-11-09T14:21:18.343Z,14.04
2017-11-09T14:23:46.160Z,13.90
2017-11-09T14:26:13.788Z,13.90
2017-11-09T14:28:41.473Z,13.82
2017-11-09T14:31:09.157Z,13.81
2017-11-09T14:33:36.787Z,13.73
2017-11-09T14:36:04.416Z,13.73
2017-11-09T14:38:32.101Z,13.75
2017-11-09T14:40:59.729Z,13.66
2017-11-09T14:43:27.413Z,13.68
2017-11-09T14:45:55.143Z,13.59
2017-11-09T14:48:22.771Z,13.66
2017-11-09T14:50:50.401Z,13.52
2017-11-09T14:53:18.089Z,13.51
2017-11-09T14:55:45.719Z,13.56
2017-11-09T14:58:13.336Z,13.56
2017-11-09T15:00:41.083Z,13.51
2017-11-09T15:03:08.712Z,13.29
2017-11-09T15:05:36.388Z,13.28
2017-11-09T15:08:04.216Z,13.20
2017-11-09T15:10:31.891Z,13.11
2017-11-09T15:12:59.572Z,13.16
2017-11-09T15:15:27.254Z,13.07
2017-11-09T15:17:54.913Z,13.08
2017-11-09T15:20:22.646Z,13.00
2017-11-09T15:22:50.441Z,12.98
2017-11-09T15:25:18.132Z,12.95
2017-11-09T15:27:45.773Z,12.91
2017-11-09T15:30:13.561Z,12.88
2017-11-09T15:32:41.255Z,12.88
2017-11-09T15:35:10.785Z,12.94
2017-11-09T15:37:38.456Z,12.91
2017-11-09T15:40:06.139Z,12.93
2017-11-09T15:42:33.772Z,12.93
2017-11-09T15:45:01.448Z,12.85
2017-11-09T15:47:29.084Z,12.92
2017-11-09T15:49:56.712Z,12.91
2017-11-09T15:52:24.384Z,12.91
2017-11-09T15:54:52.017Z,12.94
2017-11-09T15:57:19.637Z,12.89
2017-11-09T15:59:47.326Z,12.93
2017-11-09T16:02:14.952Z,12.87
2017-11-09T16:04:42.673Z,12.86
2017-11-09T16:07:16.139Z,12.90
2017-11-09T16:09:43.817Z,12.89
2017-11-09T16:12:11.430Z,12.84
2017-11-09T16:14:39.250Z,12.83
2017-11-09T16:17:06.873Z,12.85
2017-11-09T16:19:34.496Z,12.81
2017-11-09T16:22:02.159Z,12.74
2017-11-09T16:24:29.788Z,12.73
2017-11-09T16:26:57.456Z,12.70
2017-11-09T16:29:25.126Z,12.79
2017-11-09T16:31:52.752Z,12.82
2017-11-09T16:34:20.377Z,12.88
2017-11-09T16:36:48.046Z,12.92
2017-11-09T16:39:15.688Z,12.80
2017-11-09T16:41:43.378Z,12.74
2017-11-09T16:44:11.049Z,12.73
2017-11-09T16:46:38.674Z,12.71
2017-11-09T16:49:06.301Z,12.68
2017-11-09T16:51:33.996Z,12.66
2017-11-09T16:54:01.659Z,12.70
2017-11-09T16:56:29.273Z,12.71
2017-11-09T16:58:57.009Z,12.74
2017-11-09T17:01:24.621Z,12.65
2017-11-09T17:03:52.244Z,12.68
2017-11-09T17:06:19.927Z,12.74
2017-11-09T17:08:47.630Z,12.75
2017-11-09T17:11:15.327Z,12.86
2017-11-09T17:13:43.011Z,12.89
2017-11-09T17:16:10.641Z,12.85
2017-11-09T17:18:38.326Z,12.75
2017-11-09T17:21:06.011Z,12.79
2017-11-09T17:23:33.644Z,12.72
2017-11-09T17:26:01.279Z,12.76
2017-11-09T17:28:28.960Z,12.76
2017-11-09T17:30:56.632Z,12.74
2017-11-09T17:33:24.322Z,12.74
2017-11-09T17:35:52.218Z,12.76
2017-11-09T17:38:19.919Z,12.73
2017-11-09T17:40:47.601Z,12.76
2017-11-09T17:43:15.309Z,12.79
2017-11-09T17:45:42.991Z,12.81
2017-11-09T17:48:10.609Z,12.83
2017-11-09T17:50:38.357Z,12.84
2017-11-09T17:53:05.982Z,12.78
2017-11-09T17:55:33.657Z,12.81
2017-11-09T17:58:01.329Z,12.78
2017-11-09T18:00:28.961Z,12.74
2017-11-09T18:02:56.648Z,12.78
2017-11-09T18:05:24.392Z,12.75
2017-11-09T18:07:52.019Z,12.77
2017-11-09T18:10:19.697Z,12.75
2017-11-09T18:12:47.377Z,12.78
2017-11-09T18:15:15.106Z,12.75
2017-11-09T18:17:42.744Z,12.73
2017-11-09T18:20:10.433Z,12.72
2017-11-09T18:22:38.111Z,12.71
2017-11-09T18:25:05.729Z,12.71
2017-11-09T18:27:33.557Z,12.73
2017-11-09T18:30:01.180Z,12.75
2017-11-09T18:32:28.813Z,12.71
2017-11-09T18:34:56.557Z,12.72
2017-11-09T18:37:24.176Z,12.70
2017-11-09T18:39:51.805Z,12.65
2017-11-09T18:42:19.543Z,12.63
2017-11-09T18:44:47.225Z,12.58
2017-11-09T18:47:14.964Z,12.52
2017-11-09T18:49:42.770Z,12.46
2017-11-09T18:52:10.438Z,12.40
2017-11-09T18:54:38.057Z,12.36
2017-11-09T18:57:05.729Z,12.33
2017-11-09T18:59:33.375Z,12.31
2017-11-09T19:02:01.000Z,12.29
2017-11-09T19:04:28.712Z,12.23
2017-11-09T19:06:56.343Z,12.16
2017-11-09T19:09:27.682Z,12.07
2017-11-09T19:11:55.476Z,12.04
2017-11-09T19:14:23.112Z,12.03
2017-11-09T19:16:50.795Z,12.00
2017-11-09T19:19:18.484Z,11.97
2017-11-09T19:21:46.105Z,11.93
2017-11-09T19:24:13.793Z,11.90
2017-11-09T19:26:41.525Z,11.89
2017-11-09T19:29:09.152Z,11.86
2017-11-09T19:31:36.776Z,11.83
2017-11-09T19:34:04.453Z,11.77
2017-11-09T19:36:32.072Z,11.73
2017-11-09T19:38:59.704Z,11.72
2017-11-09T19:41:27.441Z,11.68
2017-11-09T19:43:55.057Z,11.68
2017-11-09T19:46:22.703Z,11.68
2017-11-09T19:48:50.489Z,11.69
2017-11-09T19:51:18.121Z,11.70
2017-11-09T19:53:45.749Z,11.70
2017-11-09T19:56:13.437Z,11.71
2017-11-09T19:58:41.063Z,11.65
2017-11-09T20:01:08.700Z,11.62
2017-11-09T20:03:36.385Z,11.59
2017-11-09T20:06:04.100Z,11.52
2017-11-09T20:08:31.781Z,11.45
2017-11-09T20:10:59.448Z,11.34
2017-11-09T20:13:27.093Z,11.26
2017-11-09T20:15:54.725Z,11.15
2017-11-09T20:18:22.453Z,11.04
2017-11-09T20:20:50.081Z,10.93
2017-11-09T20:23:17.703Z,10.86
2017-11-09T20:25:45.368Z,10.78
2017-11-09T20:28:12.991Z,10.71
2017-11-09T20:30:40.610Z,10.65
2017-11-09T20:33:08.293Z,10.59
2017-11-09T20:35:35.920Z,10.55
2017-11-09T20:38:03.613Z,10.49
2017-11-09T20:40:31.336Z,10.43
2017-11-09T20:42:59.043Z,10.39
2017-11-09T20:45:26.728Z,10.37
2017-11-09T20:47:54.461Z,10.36
2017-11-09T20:50:22.084Z,10.39
2017-11-09T20:52:49.773Z,10.45
2017-11-09T20:55:17.527Z,10.50
2017-11-09T20:57:45.154Z,10.55
2017-11-09T21:00:12.787Z,10.60
2017-11-09T21:02:40.625Z,10.62
2017-11-09T21:05:08.250Z,10.63
2017-11-09T21:07:35.881Z,10.65
2017-11-09T21:10:03.565Z,10.66
2017-11-09T21:12:31.204Z,10.70
2017-11-09T21:14:58.823Z,10.73
2017-11-09T21:17:26.501Z,10.76
2017-11-09T21:19:54.135Z,10.84
2017-11-09T21:22:21.765Z,10.91
2017-11-09T21:24:49.538Z,10.98
2017-11-09T21:27:17.218Z,11.04
2017-11-09T21:29:44.837Z,11.08
2017-11-09T21:32:12.670Z,11.07
2017-11-09T21:34:40.289Z,11.08
2017-11-09T21:37:07.919Z,11.09
2017-11-09T21:39:35.656Z,11.12
2017-11-09T21:42:03.280Z,11.17
2017-11-09T21:44:30.900Z,11.21
2017-11-09T21:46:58.625Z,11.22
2017-11-09T21:49:26.309Z,11.20
2017-11-09T21:51:53.937Z,11.16
2017-11-09T21:54:21.608Z,11.13
2017-11-09T21:56:49.281Z,11.08
2017-11-09T21:59:16.926Z,11.02
2017-11-09T22:01:44.593Z,10.99
2017-11-09T22:04:12.225Z,11.00
2017-11-09T22:06:39.847Z,10.97
2017-11-09T22:09:07.581Z,10.92
2017-11-09T22:11:35.260Z,10.88
2017-11-09T22:14:02.894Z,10.79
2017-11-09T22:16:30.560Z,10.67
2017-11-09T22:18:58.191Z,10.49
2017-11-09T22:21:25.870Z,10.33
2017-11-09T22:23:53.543Z,10.20
2017-11-09T22:26:21.232Z,10.03
2017-11-09T22:28:48.906Z,9.95
2017-11-09T22:31:16.584Z,9.91
2017-11-09T22:33:44.269Z,9.84
2017-11-09T22:36:11.888Z,9.79
2017-11-09T22:38:39.571Z,9.72
2017-11-09T22:41:07.186Z,9.64
2017-11-09T22:43:34.813Z,9.62
2017-11-09T22:46:02.593Z,9.55
2017-11-09T22:48:30.216Z,9.49
2017-11-09T22:50:57.893Z,9.41
2017-11-09T22:56:23.755Z,9.23
2017-11-09T22:58:51.485Z,9.18
2017-11-09T23:01:19.194Z,9.10
2017-11-09T23:03:47.025Z,9.05
2017-11-09T23:06:14.750Z,9.01
2017-11-09T23:08:42.428Z,9.04
2017-11-09T23:11:10.166Z,9.08
2017-11-09T23:13:37.885Z,9.12
2017-11-09T23:16:05.516Z,9.11
2017-11-09T23:18:33.188Z,9.16
2017-11-09T23:21:00.932Z,9.20
2017-11-09T23:23:28.543Z,9.19
2017-11-09T23:25:56.172Z,9.12
2017-11-09T23:28:23.849Z,9.07
2017-11-09T23:30:51.472Z,8.98
2017-11-09T23:33:21.868Z,8.92
2017-11-09T23:35:49.602Z,8.88
2017-11-09T23:38:17.213Z,8.83
2017-11-09T23:40:44.888Z,8.80
2017-11-09T23:43:12.568Z,8.77
2017-11-09T23:45:40.183Z,8.80
2017-11-09T23:48:07.801Z,8.85
2017-11-09T23:50:35.526Z,8.92
2017-11-09T23:53:03.163Z,8.97
2017-11-09T23:55:30.774Z,9.02
2017-11-09T23:57:58.549Z,9.05
